sensor_id;sensor_type;location;lat;lon;timestamp;noise_LAeq;noise_LA_min;noise_LA_max;noise_LA01;noise_LA95
66399;Laerm;54877;51.504;3.894;2023-02-28T00:00:32;32.58;28.91;46.44;;
66399;Laerm;54877;51.504;3.894;2023-02-28T00:02:58;30.99;28.82;35.15;;
66399;Laerm;54877;51.504;3.894;2023-02-28T00:05:25;31.26;29.05;39.99;;
66399;Laerm;54877;51.504;3.894;2023-02-28T00:07:51;30.90;29.11;34.02;;
66399;Laerm;54877;51.504;3.894;2023-02-28T00:10:22;31.04;29.17;34.71;;
66399;Laerm;54877;51.504;3.894;2023-02-28T00:12:50;31.54;29.59;35.36;;
66399;Laerm;54877;51.504;3.894;2023-02-28T00:15:16;31.44;29.51;33.78;;
66399;Laerm;54877;51.504;3.894;2023-02-28T00:17:42;31.40;29.44;37.39;;
66399;Laerm;54877;51.504;3.894;2023-02-28T00:20:08;31.86;29.67;39.69;;
66399;Laerm;54877;51.504;3.894;2023-02-28T00:22:36;31.44;29.83;36.73;;
66399;Laerm;54877;51.504;3.894;2023-02-28T00:25:01;31.37;29.51;33.90;;
66399;Laerm;54877;51.504;3.894;2023-02-28T00:27:27;31.62;29.60;38.70;;
66399;Laerm;54877;51.504;3.894;2023-02-28T00:29:52;31.81;29.94;40.38;;
66399;Laerm;54877;51.504;3.894;2023-02-28T00:32:19;31.98;29.75;38.76;;
66399;Laerm;54877;51.504;3.894;2023-02-28T00:34:44;32.19;29.97;41.37;;
66399;Laerm;54877;51.504;3.894;2023-02-28T00:37:10;55.81;30.07;75.87;;
66399;Laerm;54877;51.504;3.894;2023-02-28T00:39:39;31.85;29.81;43.60;;
66399;Laerm;54877;51.504;3.894;2023-02-28T00:42:05;31.80;29.94;35.23;;
66399;Laerm;54877;51.504;3.894;2023-02-28T00:44:31;31.63;29.97;39.41;;
66399;Laerm;54877;51.504;3.894;2023-02-28T00:46:57;31.59;29.56;34.01;;
66399;Laerm;54877;51.504;3.894;2023-02-28T00:49:24;31.50;29.80;34.29;;
66399;Laerm;54877;51.504;3.894;2023-02-28T00:51:50;31.53;29.80;39.35;;
66399;Laerm;54877;51.504;3.894;2023-02-28T00:54:16;31.55;29.63;35.13;;
66399;Laerm;54877;51.504;3.894;2023-02-28T00:56:41;31.50;29.65;33.08;;
66399;Laerm;54877;51.504;3.894;2023-02-28T00:59:07;32.25;29.46;43.37;;
66399;Laerm;54877;51.504;3.894;2023-02-28T01:01:33;31.94;30.06;37.70;;
66399;Laerm;54877;51.504;3.894;2023-02-28T01:03:58;31.79;29.53;34.73;;
66399;Laerm;54877;51.504;3.894;2023-02-28T01:06:23;31.80;29.98;34.35;;
66399;Laerm;54877;51.504;3.894;2023-02-28T01:08:49;31.79;29.87;34.23;;
66399;Laerm;54877;51.504;3.894;2023-02-28T01:11:17;31.78;30.03;34.46;;
66399;Laerm;54877;51.504;3.894;2023-02-28T01:13:43;31.67;29.92;39.22;;
66399;Laerm;54877;51.504;3.894;2023-02-28T01:16:09;31.60;29.73;33.68;;
66399;Laerm;54877;51.504;3.894;2023-02-28T01:18:35;31.60;29.85;33.75;;
66399;Laerm;54877;51.504;3.894;2023-02-28T01:21:09;31.69;29.78;35.25;;
66399;Laerm;54877;51.504;3.894;2023-02-28T01:23:35;31.50;29.72;34.71;;
66399;Laerm;54877;51.504;3.894;2023-02-28T01:26:18;31.68;29.93;38.12;;
66399;Laerm;54877;51.504;3.894;2023-02-28T01:28:44;31.57;29.55;39.69;;
66399;Laerm;54877;51.504;3.894;2023-02-28T01:31:10;31.48;29.71;39.64;;
66399;Laerm;54877;51.504;3.894;2023-02-28T01:33:35;31.58;29.72;35.90;;
66399;Laerm;54877;51.504;3.894;2023-02-28T01:36:03;31.47;29.85;33.32;;
66399;Laerm;54877;51.504;3.894;2023-02-28T01:38:29;31.43;29.51;33.41;;
66399;Laerm;54877;51.504;3.894;2023-02-28T01:40:55;31.48;29.82;33.30;;
66399;Laerm;54877;51.504;3.894;2023-02-28T01:43:26;31.32;29.31;34.47;;
66399;Laerm;54877;51.504;3.894;2023-02-28T01:45:54;31.04;29.30;33.50;;
66399;Laerm;54877;51.504;3.894;2023-02-28T01:48:27;31.26;29.15;35.48;;
66399;Laerm;54877;51.504;3.894;2023-02-28T01:51:00;31.21;29.24;33.42;;
66399;Laerm;54877;51.504;3.894;2023-02-28T01:53:33;31.09;29.23;33.74;;
66399;Laerm;54877;51.504;3.894;2023-02-28T01:55:59;30.81;28.98;32.92;;
66399;Laerm;54877;51.504;3.894;2023-02-28T01:58:26;30.66;28.87;32.55;;
66399;Laerm;54877;51.504;3.894;2023-02-28T02:00:52;31.02;28.93;39.39;;
66399;Laerm;54877;51.504;3.894;2023-02-28T02:03:19;30.76;28.63;33.40;;
66399;Laerm;54877;51.504;3.894;2023-02-28T02:05:45;30.74;28.86;37.23;;
66399;Laerm;54877;51.504;3.894;2023-02-28T02:08:17;30.70;28.73;32.84;;
66399;Laerm;54877;51.504;3.894;2023-02-28T02:10:54;30.84;28.66;32.79;;
66399;Laerm;54877;51.504;3.894;2023-02-28T02:24:58;31.40;29.63;36.19;;
66399;Laerm;54877;51.504;3.894;2023-02-28T02:28:03;31.58;29.60;35.98;;
66399;Laerm;54877;51.504;3.894;2023-02-28T02:36:24;31.48;29.46;34.14;;
66399;Laerm;54877;51.504;3.894;2023-02-28T02:41:36;31.65;29.80;35.35;;
66399;Laerm;54877;51.504;3.894;2023-02-28T02:46:34;31.73;29.62;46.25;;
66399;Laerm;54877;51.504;3.894;2023-02-28T02:49:04;31.55;29.74;33.69;;
66399;Laerm;54877;51.504;3.894;2023-02-28T02:51:32;31.42;29.69;33.57;;
66399;Laerm;54877;51.504;3.894;2023-02-28T02:54:08;31.63;29.71;37.27;;
66399;Laerm;54877;51.504;3.894;2023-02-28T02:56:35;31.38;29.44;37.91;;
66399;Laerm;54877;51.504;3.894;2023-02-28T02:59:04;31.31;29.63;33.28;;
66399;Laerm;54877;51.504;3.894;2023-02-28T03:01:34;31.63;29.63;36.20;;
66399;Laerm;54877;51.504;3.894;2023-02-28T03:04:05;31.57;29.61;34.38;;
66399;Laerm;54877;51.504;3.894;2023-02-28T03:06:31;31.57;29.73;33.89;;
66399;Laerm;54877;51.504;3.894;2023-02-28T03:08:56;31.58;29.65;34.17;;
66399;Laerm;54877;51.504;3.894;2023-02-28T03:11:22;31.53;29.73;34.67;;
66399;Laerm;54877;51.504;3.894;2023-02-28T03:16:35;32.55;30.07;43.92;;
66399;Laerm;54877;51.504;3.894;2023-02-28T03:25:39;31.40;29.66;35.90;;
66399;Laerm;54877;51.504;3.894;2023-02-28T03:28:23;31.43;29.57;34.37;;
66399;Laerm;54877;51.504;3.894;2023-02-28T03:30:58;56.67;29.76;76.30;;
66399;Laerm;54877;51.504;3.894;2023-02-28T03:33:31;31.86;30.01;41.03;;
66399;Laerm;54877;51.504;3.894;2023-02-28T03:36:02;32.17;29.86;37.87;;
66399;Laerm;54877;51.504;3.894;2023-02-28T03:38:42;31.92;29.86;34.95;;
66399;Laerm;54877;51.504;3.894;2023-02-28T03:41:14;31.45;29.48;42.37;;
66399;Laerm;54877;51.504;3.894;2023-02-28T03:43:44;31.68;29.63;38.77;;
66399;Laerm;54877;51.504;3.894;2023-02-28T03:46:16;31.50;29.69;33.74;;
66399;Laerm;54877;51.504;3.894;2023-02-28T03:48:48;32.98;29.86;40.32;;
66399;Laerm;54877;51.504;3.894;2023-02-28T03:51:18;31.84;29.86;38.84;;
66399;Laerm;54877;51.504;3.894;2023-02-28T03:53:54;31.48;29.56;34.82;;
66399;Laerm;54877;51.504;3.894;2023-02-28T03:59:13;31.89;29.70;48.19;;
66399;Laerm;54877;51.504;3.894;2023-02-28T04:01:45;42.88;29.87;55.28;;
66399;Laerm;54877;51.504;3.894;2023-02-28T04:04:12;31.17;29.36;35.45;;
66399;Laerm;54877;51.504;3.894;2023-02-28T04:06:39;31.39;29.47;39.24;;
66399;Laerm;54877;51.504;3.894;2023-02-28T04:09:06;31.28;29.13;35.81;;
66399;Laerm;54877;51.504;3.894;2023-02-28T04:11:40;31.20;29.36;33.44;;
66399;Laerm;54877;51.504;3.894;2023-02-28T04:14:08;31.02;29.08;36.82;;
66399;Laerm;54877;51.504;3.894;2023-02-28T04:16:36;35.64;29.38;56.44;;
66399;Laerm;54877;51.504;3.894;2023-02-28T04:19:06;30.91;28.93;34.65;;
66399;Laerm;54877;51.504;3.894;2023-02-28T04:21:38;30.83;28.93;34.93;;
66399;Laerm;54877;51.504;3.894;2023-02-28T04:24:08;30.84;28.83;33.90;;
66399;Laerm;54877;51.504;3.894;2023-02-28T04:26:40;30.68;28.76;33.41;;
66399;Laerm;54877;51.504;3.894;2023-02-28T04:29:06;30.73;28.59;35.63;;
66399;Laerm;54877;51.504;3.894;2023-02-28T04:31:32;30.84;28.67;38.44;;
66399;Laerm;54877;51.504;3.894;2023-02-28T04:33:58;30.70;28.40;33.79;;
66399;Laerm;54877;51.504;3.894;2023-02-28T04:36:23;31.17;28.89;34.85;;
66399;Laerm;54877;51.504;3.894;2023-02-28T04:38:49;33.64;29.28;41.82;;
66399;Laerm;54877;51.504;3.894;2023-02-28T04:41:15;31.77;28.74;41.53;;
66399;Laerm;54877;51.504;3.894;2023-02-28T04:43:40;31.74;29.07;40.98;;
66399;Laerm;54877;51.504;3.894;2023-02-28T04:46:06;31.18;28.72;36.19;;
66399;Laerm;54877;51.504;3.894;2023-02-28T04:48:33;31.37;28.85;35.29;;
66399;Laerm;54877;51.504;3.894;2023-02-28T04:51:04;52.08;29.30;71.58;;
66399;Laerm;54877;51.504;3.894;2023-02-28T04:53:29;33.45;28.99;43.69;;
66399;Laerm;54877;51.504;3.894;2023-02-28T04:55:56;32.01;28.79;49.68;;
66399;Laerm;54877;51.504;3.894;2023-02-28T04:58:21;32.16;29.09;39.71;;
66399;Laerm;54877;51.504;3.894;2023-02-28T05:00:53;32.91;29.63;45.36;;
66399;Laerm;54877;51.504;3.894;2023-02-28T05:03:19;35.02;29.39;60.62;;
66399;Laerm;54877;51.504;3.894;2023-02-28T05:05:46;35.81;28.64;54.50;;
66399;Laerm;54877;51.504;3.894;2023-02-28T05:08:11;33.57;29.03;58.21;;
66399;Laerm;54877;51.504;3.894;2023-02-28T05:10:37;36.67;29.15;50.18;;
66399;Laerm;54877;51.504;3.894;2023-02-28T05:13:02;37.46;29.39;54.35;;
66399;Laerm;54877;51.504;3.894;2023-02-28T05:15:28;32.06;29.76;40.47;;
66399;Laerm;54877;51.504;3.894;2023-02-28T05:17:53;52.53;30.25;69.74;;
66399;Laerm;54877;51.504;3.894;2023-02-28T05:20:18;32.19;29.67;35.83;;
66399;Laerm;54877;51.504;3.894;2023-02-28T05:22:44;33.91;29.62;55.67;;
66399;Laerm;54877;51.504;3.894;2023-02-28T05:25:17;32.03;29.42;35.42;;
66399;Laerm;54877;51.504;3.894;2023-02-28T05:27:42;33.31;29.65;46.84;;
66399;Laerm;54877;51.504;3.894;2023-02-28T05:30:08;33.19;29.50;41.85;;
66399;Laerm;54877;51.504;3.894;2023-02-28T05:32:37;59.20;29.88;79.08;;
66399;Laerm;54877;51.504;3.894;2023-02-28T05:35:03;56.81;30.67;76.49;;
66399;Laerm;54877;51.504;3.894;2023-02-28T05:37:28;33.57;30.47;48.64;;
66399;Laerm;54877;51.504;3.894;2023-02-28T05:39:53;34.68;30.17;43.08;;
66399;Laerm;54877;51.504;3.894;2023-02-28T05:42:19;33.48;30.27;38.11;;
66399;Laerm;54877;51.504;3.894;2023-02-28T05:44:44;40.66;30.44;55.90;;
66399;Laerm;54877;51.504;3.894;2023-02-28T05:47:09;35.48;30.90;42.97;;
66399;Laerm;54877;51.504;3.894;2023-02-28T05:49:35;36.00;31.46;51.32;;
66399;Laerm;54877;51.504;3.894;2023-02-28T05:52:00;35.59;30.91;54.73;;
66399;Laerm;54877;51.504;3.894;2023-02-28T05:54:26;43.82;30.67;72.10;;
66399;Laerm;54877;51.504;3.894;2023-02-28T05:56:51;36.34;30.21;57.37;;
66399;Laerm;54877;51.504;3.894;2023-02-28T05:59:16;39.28;30.57;63.35;;
66399;Laerm;54877;51.504;3.894;2023-02-28T06:01:44;36.56;30.36;56.70;;
66399;Laerm;54877;51.504;3.894;2023-02-28T06:04:14;55.63;31.28;74.83;;
66399;Laerm;54877;51.504;3.894;2023-02-28T06:06:43;41.61;30.68;57.33;;
66399;Laerm;54877;51.504;3.894;2023-02-28T06:09:08;55.47;30.87;77.55;;
66399;Laerm;54877;51.504;3.894;2023-02-28T06:11:34;49.96;31.98;68.70;;
66399;Laerm;54877;51.504;3.894;2023-02-28T06:14:00;56.76;32.40;76.78;;
66399;Laerm;54877;51.504;3.894;2023-02-28T06:16:27;48.25;32.49;65.06;;
66399;Laerm;54877;51.504;3.894;2023-02-28T06:18:52;45.70;32.64;67.96;;
66399;Laerm;54877;51.504;3.894;2023-02-28T06:21:20;42.37;31.78;59.43;;
66399;Laerm;54877;51.504;3.894;2023-02-28T06:23:46;56.11;32.93;75.95;;
66399;Laerm;54877;51.504;3.894;2023-02-28T06:26:11;44.73;34.63;64.26;;
66399;Laerm;54877;51.504;3.894;2023-02-28T06:28:36;46.66;34.14;67.36;;
66399;Laerm;54877;51.504;3.894;2023-02-28T06:31:09;57.34;33.26;74.69;;
66399;Laerm;54877;51.504;3.894;2023-02-28T06:33:37;56.91;34.01;76.23;;
66399;Laerm;54877;51.504;3.894;2023-02-28T06:36:03;41.66;33.33;59.13;;
66399;Laerm;54877;51.504;3.894;2023-02-28T06:38:29;58.35;34.01;77.83;;
66399;Laerm;54877;51.504;3.894;2023-02-28T06:40:56;55.56;34.03;72.90;;
66399;Laerm;54877;51.504;3.894;2023-02-28T06:43:23;61.50;34.89;78.97;;
66399;Laerm;54877;51.504;3.894;2023-02-28T06:45:49;55.62;34.56;75.88;;
66399;Laerm;54877;51.504;3.894;2023-02-28T06:48:14;55.25;34.43;69.79;;
66399;Laerm;54877;51.504;3.894;2023-02-28T06:50:40;49.71;34.54;65.13;;
66399;Laerm;54877;51.504;3.894;2023-02-28T06:53:05;44.90;36.77;62.50;;
66399;Laerm;54877;51.504;3.894;2023-02-28T06:55:30;53.68;38.44;66.81;;
66399;Laerm;54877;51.504;3.894;2023-02-28T06:57:57;40.66;35.90;50.49;;
66399;Laerm;54877;51.504;3.894;2023-02-28T07:00:22;44.73;34.75;70.15;;
66399;Laerm;54877;51.504;3.894;2023-02-28T07:02:48;56.47;37.98;72.79;;
66399;Laerm;54877;51.504;3.894;2023-02-28T07:05:13;47.55;35.24;68.55;;
66399;Laerm;54877;51.504;3.894;2023-02-28T07:07:39;55.63;35.21;74.46;;
66399;Laerm;54877;51.504;3.894;2023-02-28T07:10:11;57.09;36.66;76.25;;
66399;Laerm;54877;51.504;3.894;2023-02-28T07:12:36;57.30;34.68;75.10;;
66399;Laerm;54877;51.504;3.894;2023-02-28T07:15:03;41.27;34.22;53.52;;
66399;Laerm;54877;51.504;3.894;2023-02-28T07:17:28;57.12;35.90;73.60;;
66399;Laerm;54877;51.504;3.894;2023-02-28T07:19:54;56.08;35.95;75.93;;
66399;Laerm;54877;51.504;3.894;2023-02-28T07:22:19;57.35;36.66;77.20;;
66399;Laerm;54877;51.504;3.894;2023-02-28T07:24:44;59.11;37.02;76.61;;
66399;Laerm;54877;51.504;3.894;2023-02-28T07:27:10;59.35;36.91;82.92;;
66399;Laerm;54877;51.504;3.894;2023-02-28T07:29:35;58.21;35.47;74.79;;
66399;Laerm;54877;51.504;3.894;2023-02-28T07:32:01;60.29;35.38;75.46;;
66399;Laerm;54877;51.504;3.894;2023-02-28T07:34:27;53.84;36.35;74.35;;
66399;Laerm;54877;51.504;3.894;2023-02-28T07:36:53;45.86;35.30;65.14;;
66399;Laerm;54877;51.504;3.894;2023-02-28T07:39:19;57.36;35.41;76.03;;
66399;Laerm;54877;51.504;3.894;2023-02-28T07:41:45;45.82;35.61;70.72;;
66399;Laerm;54877;51.504;3.894;2023-02-28T07:44:11;56.49;36.74;83.34;;
66399;Laerm;54877;51.504;3.894;2023-02-28T07:46:36;56.29;36.57;79.31;;
66399;Laerm;54877;51.504;3.894;2023-02-28T07:49:02;56.24;34.62;88.46;;
66399;Laerm;54877;51.504;3.894;2023-02-28T07:51:31;46.86;35.48;70.08;;
66399;Laerm;54877;51.504;3.894;2023-02-28T07:53:57;55.47;36.29;72.96;;
66399;Laerm;54877;51.504;3.894;2023-02-28T07:56:22;46.04;34.83;69.87;;
66399;Laerm;54877;51.504;3.894;2023-02-28T07:58:48;51.94;35.04;69.30;;
66399;Laerm;54877;51.504;3.894;2023-02-28T08:01:13;49.47;35.67;68.33;;
66399;Laerm;54877;51.504;3.894;2023-02-28T08:03:40;59.90;36.01;79.87;;
66399;Laerm;54877;51.504;3.894;2023-02-28T08:06:07;59.02;35.72;75.41;;
66399;Laerm;54877;51.504;3.894;2023-02-28T08:08:33;57.42;36.20;76.58;;
66399;Laerm;54877;51.504;3.894;2023-02-28T08:11:00;59.17;36.92;76.94;;
66399;Laerm;54877;51.504;3.894;2023-02-28T08:13:27;55.60;36.89;72.91;;
66399;Laerm;54877;51.504;3.894;2023-02-28T08:15:53;60.39;37.30;77.61;;
66399;Laerm;54877;51.504;3.894;2023-02-28T08:18:20;57.82;37.60;72.74;;
66399;Laerm;54877;51.504;3.894;2023-02-28T08:20:46;49.37;37.15;79.48;;
66399;Laerm;54877;51.504;3.894;2023-02-28T08:23:11;56.91;37.08;74.88;;
66399;Laerm;54877;51.504;3.894;2023-02-28T08:25:37;51.48;36.85;68.19;;
66399;Laerm;54877;51.504;3.894;2023-02-28T08:28:02;50.97;36.75;68.33;;
66399;Laerm;54877;51.504;3.894;2023-02-28T08:30:27;55.98;35.95;74.17;;
66399;Laerm;54877;51.504;3.894;2023-02-28T08:32:53;40.91;36.20;54.98;;
66399;Laerm;54877;51.504;3.894;2023-02-28T08:35:19;44.62;36.56;64.39;;
66399;Laerm;54877;51.504;3.894;2023-02-28T08:37:47;70.29;38.56;83.89;;
66399;Laerm;54877;51.504;3.894;2023-02-28T08:40:13;48.09;39.10;59.90;;
66399;Laerm;54877;51.504;3.894;2023-02-28T08:42:46;44.24;36.57;62.83;;
66399;Laerm;54877;51.504;3.894;2023-02-28T08:45:12;43.45;35.93;61.07;;
66399;Laerm;54877;51.504;3.894;2023-02-28T08:47:38;47.74;36.59;63.55;;
66399;Laerm;54877;51.504;3.894;2023-02-28T08:50:04;53.43;36.26;73.13;;
66399;Laerm;54877;51.504;3.894;2023-02-28T08:52:29;44.28;36.82;65.29;;
66399;Laerm;54877;51.504;3.894;2023-02-28T08:54:55;47.65;35.00;62.09;;
66399;Laerm;54877;51.504;3.894;2023-02-28T08:57:20;50.18;36.05;71.15;;
66399;Laerm;54877;51.504;3.894;2023-02-28T08:59:45;41.48;36.31;57.15;;
66399;Laerm;54877;51.504;3.894;2023-02-28T09:02:13;53.14;35.68;70.02;;
66399;Laerm;54877;51.504;3.894;2023-02-28T09:04:39;43.85;36.37;69.57;;
66399;Laerm;54877;51.504;3.894;2023-02-28T09:07:04;45.36;36.36;59.73;;
66399;Laerm;54877;51.504;3.894;2023-02-28T09:09:29;53.30;36.79;71.40;;
66399;Laerm;54877;51.504;3.894;2023-02-28T09:11:56;43.96;39.23;65.53;;
66399;Laerm;54877;51.504;3.894;2023-02-28T09:14:21;55.30;36.45;73.59;;
66399;Laerm;54877;51.504;3.894;2023-02-28T09:16:46;59.02;35.34;75.53;;
66399;Laerm;54877;51.504;3.894;2023-02-28T09:19:12;38.31;35.68;45.44;;
66399;Laerm;54877;51.504;3.894;2023-02-28T09:21:37;55.91;36.03;75.74;;
66399;Laerm;54877;51.504;3.894;2023-02-28T09:24:03;57.02;36.84;74.88;;
66399;Laerm;54877;51.504;3.894;2023-02-28T09:26:28;53.51;35.52;72.90;;
66399;Laerm;54877;51.504;3.894;2023-02-28T09:28:54;43.02;35.43;56.58;;
66399;Laerm;54877;51.504;3.894;2023-02-28T09:31:23;52.66;35.66;69.53;;
66399;Laerm;54877;51.504;3.894;2023-02-28T09:33:51;50.77;34.57;68.93;;
66399;Laerm;54877;51.504;3.894;2023-02-28T09:36:17;42.18;34.20;68.89;;
66399;Laerm;54877;51.504;3.894;2023-02-28T09:38:43;44.44;34.85;62.10;;
66399;Laerm;54877;51.504;3.894;2023-02-28T09:41:36;37.34;33.28;47.43;;
66399;Laerm;54877;51.504;3.894;2023-02-28T09:44:04;40.85;35.03;64.38;;
66399;Laerm;54877;51.504;3.894;2023-02-28T09:46:43;42.74;35.03;59.50;;
66399;Laerm;54877;51.504;3.894;2023-02-28T09:49:17;44.57;35.48;62.80;;
66399;Laerm;54877;51.504;3.894;2023-02-28T09:54:16;58.75;35.28;77.03;;
66399;Laerm;54877;51.504;3.894;2023-02-28T09:56:45;55.41;35.82;73.02;;
66399;Laerm;54877;51.504;3.894;2023-02-28T10:05:02;51.70;34.82;69.86;;
66399;Laerm;54877;51.504;3.894;2023-02-28T10:15:51;51.99;33.81;63.20;;
66399;Laerm;54877;51.504;3.894;2023-02-28T10:18:23;55.36;35.94;73.36;;
66399;Laerm;54877;51.504;3.894;2023-02-28T10:20:50;51.21;35.26;66.26;;
66399;Laerm;54877;51.504;3.894;2023-02-28T10:23:25;71.00;34.39;82.95;;
66399;Laerm;54877;51.504;3.894;2023-02-28T10:26:00;67.03;44.68;80.89;;
66399;Laerm;54877;51.504;3.894;2023-02-28T10:28:28;54.13;39.45;71.49;;
66399;Laerm;54877;51.504;3.894;2023-02-28T10:30:54;46.28;34.99;73.22;;
66399;Laerm;54877;51.504;3.894;2023-02-28T10:33:28;47.95;34.55;62.77;;
66399;Laerm;54877;51.504;3.894;2023-02-28T10:35:54;54.88;37.78;76.24;;
66399;Laerm;54877;51.504;3.894;2023-02-28T10:38:25;52.49;40.81;67.87;;
66399;Laerm;54877;51.504;3.894;2023-02-28T10:40:51;60.94;40.12;74.00;;
66399;Laerm;54877;51.504;3.894;2023-02-28T10:43:18;61.29;34.79;72.41;;
66399;Laerm;54877;51.504;3.894;2023-02-28T10:46:01;53.88;34.98;72.06;;
66399;Laerm;54877;51.504;3.894;2023-02-28T10:48:38;49.52;33.91;76.63;;
66399;Laerm;54877;51.504;3.894;2023-02-28T10:51:06;56.12;33.78;74.94;;
66399;Laerm;54877;51.504;3.894;2023-02-28T10:53:49;50.54;33.51;71.48;;
66399;Laerm;54877;51.504;3.894;2023-02-28T10:56:21;53.43;33.56;73.22;;
66399;Laerm;54877;51.504;3.894;2023-02-28T11:03:55;55.16;33.29;74.39;;
66399;Laerm;54877;51.504;3.894;2023-02-28T11:06:27;43.95;33.95;63.57;;
66399;Laerm;54877;51.504;3.894;2023-02-28T11:08:59;51.77;35.25;68.41;;
66399;Laerm;54877;51.504;3.894;2023-02-28T11:11:28;57.71;34.44;77.50;;
66399;Laerm;54877;51.504;3.894;2023-02-28T11:13:57;48.54;33.53;63.88;;
66399;Laerm;54877;51.504;3.894;2023-02-28T11:16:33;46.62;33.74;62.91;;
66399;Laerm;54877;51.504;3.894;2023-02-28T11:18:59;48.66;35.24;70.89;;
66399;Laerm;54877;51.504;3.894;2023-02-28T11:21:31;45.48;36.62;66.16;;
66399;Laerm;54877;51.504;3.894;2023-02-28T11:26:49;45.25;31.80;65.36;;
66399;Laerm;54877;51.504;3.894;2023-02-28T11:29:28;50.99;39.25;67.84;;
66399;Laerm;54877;51.504;3.894;2023-02-28T11:34:39;46.04;32.36;63.32;;
66399;Laerm;54877;51.504;3.894;2023-02-28T11:37:09;43.37;31.84;62.15;;
66399;Laerm;54877;51.504;3.894;2023-02-28T11:39:35;57.41;33.74;76.20;;
66399;Laerm;54877;51.504;3.894;2023-02-28T11:47:56;55.94;43.80;72.21;;
66399;Laerm;54877;51.504;3.894;2023-02-28T11:53:19;56.87;31.86;75.04;;
66399;Laerm;54877;51.504;3.894;2023-02-28T11:56:36;57.78;32.64;77.27;;
66399;Laerm;54877;51.504;3.894;2023-02-28T12:05:29;59.29;36.11;79.61;;
66399;Laerm;54877;51.504;3.894;2023-02-28T12:19:43;62.91;36.39;79.73;;
66399;Laerm;54877;51.504;3.894;2023-02-28T12:25:21;58.34;36.04;79.16;;
66399;Laerm;54877;51.504;3.894;2023-02-28T12:27:51;51.44;35.29;70.80;;
66399;Laerm;54877;51.504;3.894;2023-02-28T12:30:30;40.57;33.46;59.57;;
66399;Laerm;54877;51.504;3.894;2023-02-28T12:33:03;53.56;33.31;73.21;;
66399;Laerm;54877;51.504;3.894;2023-02-28T12:35:37;53.02;35.46;69.13;;
66399;Laerm;54877;51.504;3.894;2023-02-28T12:38:10;53.53;34.72;73.97;;
66399;Laerm;54877;51.504;3.894;2023-02-28T12:40:52;53.35;34.25;69.34;;
66399;Laerm;54877;51.504;3.894;2023-02-28T12:43:20;53.15;32.71;70.09;;
66399;Laerm;54877;51.504;3.894;2023-02-28T12:45:52;49.51;33.92;78.52;;
66399;Laerm;54877;51.504;3.894;2023-02-28T12:48:48;47.03;31.90;65.62;;
66399;Laerm;54877;51.504;3.894;2023-02-28T12:51:17;38.60;31.26;54.98;;
66399;Laerm;54877;51.504;3.894;2023-02-28T12:56:36;57.92;34.91;75.69;;
66399;Laerm;54877;51.504;3.894;2023-02-28T13:02:39;50.90;31.68;66.24;;
66399;Laerm;54877;51.504;3.894;2023-02-28T13:04:44;55.96;31.55;72.25;;
66399;Laerm;54877;51.504;3.894;2023-02-28T13:10:05;56.83;34.50;73.87;;
66399;Laerm;54877;51.504;3.894;2023-02-28T13:12:33;58.60;35.41;77.00;;
66399;Laerm;54877;51.504;3.894;2023-02-28T13:15:17;50.95;33.98;75.86;;
66399;Laerm;54877;51.504;3.894;2023-02-28T13:17:50;57.72;35.10;74.52;;
66399;Laerm;54877;51.504;3.894;2023-02-28T13:20:28;53.94;35.37;71.38;;
66399;Laerm;54877;51.504;3.894;2023-02-28T13:22:55;53.99;34.44;77.78;;
66399;Laerm;54877;51.504;3.894;2023-02-28T13:27:47;59.28;37.28;75.22;;
66399;Laerm;54877;51.504;3.894;2023-02-28T13:33:29;46.70;37.62;66.14;;
66399;Laerm;54877;51.504;3.894;2023-02-28T13:38:42;50.68;34.73;73.80;;
66399;Laerm;54877;51.504;3.894;2023-02-28T13:49:26;45.89;32.98;68.75;;
66399;Laerm;54877;51.504;3.894;2023-02-28T14:05:43;45.12;33.83;67.14;;
66399;Laerm;54877;51.504;3.894;2023-02-28T14:08:18;60.19;34.08;76.00;;
66399;Laerm;54877;51.504;3.894;2023-02-28T14:10:48;58.57;35.28;77.99;;
66399;Laerm;54877;51.504;3.894;2023-02-28T14:16:05;47.52;33.53;73.19;;
66399;Laerm;54877;51.504;3.894;2023-02-28T14:18:34;42.56;33.98;60.18;;
66399;Laerm;54877;51.504;3.894;2023-02-28T14:21:11;55.17;33.75;74.63;;
66399;Laerm;54877;51.504;3.894;2023-02-28T14:29:30;45.13;34.23;67.72;;
66399;Laerm;54877;51.504;3.894;2023-02-28T14:32:06;49.86;34.80;74.62;;
66399;Laerm;54877;51.504;3.894;2023-02-28T14:34:49;53.93;34.21;77.32;;
66399;Laerm;54877;51.504;3.894;2023-02-28T14:37:20;56.89;33.96;76.30;;
66399;Laerm;54877;51.504;3.894;2023-02-28T14:39:49;43.94;33.62;67.92;;
66399;Laerm;54877;51.504;3.894;2023-02-28T14:42:31;55.09;34.77;73.43;;
66399;Laerm;54877;51.504;3.894;2023-02-28T14:44:58;47.24;35.10;74.06;;
66399;Laerm;54877;51.504;3.894;2023-02-28T14:47:28;50.08;34.74;73.58;;
66399;Laerm;54877;51.504;3.894;2023-02-28T14:49:54;56.35;36.14;73.88;;
66399;Laerm;54877;51.504;3.894;2023-02-28T14:52:25;55.01;32.31;77.73;;
66399;Laerm;54877;51.504;3.894;2023-02-28T14:55:17;53.16;33.66;73.29;;
66399;Laerm;54877;51.504;3.894;2023-02-28T14:57:55;42.64;32.95;63.30;;
66399;Laerm;54877;51.504;3.894;2023-02-28T15:00:29;53.78;32.92;72.71;;
66399;Laerm;54877;51.504;3.894;2023-02-28T15:02:56;58.29;33.53;76.43;;
66399;Laerm;54877;51.504;3.894;2023-02-28T15:05:32;54.71;33.12;74.62;;
66399;Laerm;54877;51.504;3.894;2023-02-28T15:08:13;53.65;34.38;73.56;;
66399;Laerm;54877;51.504;3.894;2023-02-28T15:10:45;56.80;33.13;73.35;;
66399;Laerm;54877;51.504;3.894;2023-02-28T15:13:15;57.78;34.11;78.69;;
66399;Laerm;54877;51.504;3.894;2023-02-28T15:21:00;53.84;47.79;77.03;;
66399;Laerm;54877;51.504;3.894;2023-02-28T15:23:27;59.00;35.22;76.57;;
66399;Laerm;54877;51.504;3.894;2023-02-28T15:25:54;45.80;35.04;70.90;;
66399;Laerm;54877;51.504;3.894;2023-02-28T15:28:22;53.37;35.17;71.36;;
66399;Laerm;54877;51.504;3.894;2023-02-28T15:31:00;54.57;35.43;69.68;;
66399;Laerm;54877;51.504;3.894;2023-02-28T15:33:31;56.73;35.02;76.79;;
66399;Laerm;54877;51.504;3.894;2023-02-28T15:36:05;56.64;34.54;76.15;;
66399;Laerm;54877;51.504;3.894;2023-02-28T15:38:35;55.48;34.28;75.15;;
66399;Laerm;54877;51.504;3.894;2023-02-28T15:41:00;47.17;33.26;67.93;;
66399;Laerm;54877;51.504;3.894;2023-02-28T15:43:27;57.40;33.58;75.95;;
66399;Laerm;54877;51.504;3.894;2023-02-28T15:45:57;52.51;33.54;71.09;;
66399;Laerm;54877;51.504;3.894;2023-02-28T15:48:35;55.35;34.45;71.67;;
66399;Laerm;54877;51.504;3.894;2023-02-28T15:54:04;46.84;33.02;62.84;;
66399;Laerm;54877;51.504;3.894;2023-02-28T15:56:35;47.33;34.87;74.29;;
66399;Laerm;54877;51.504;3.894;2023-02-28T15:59:12;48.15;34.76;65.83;;
66399;Laerm;54877;51.504;3.894;2023-02-28T16:01:40;48.41;33.77;67.64;;
66399;Laerm;54877;51.504;3.894;2023-02-28T16:04:17;44.61;32.47;64.83;;
66399;Laerm;54877;51.504;3.894;2023-02-28T16:06:47;59.08;35.00;78.41;;
66399;Laerm;54877;51.504;3.894;2023-02-28T16:09:25;54.90;34.62;69.93;;
66399;Laerm;54877;51.504;3.894;2023-02-28T16:11:54;51.04;35.56;68.57;;
66399;Laerm;54877;51.504;3.894;2023-02-28T16:14:25;50.68;35.18;71.65;;
66399;Laerm;54877;51.504;3.894;2023-02-28T16:17:04;59.16;36.87;76.34;;
66399;Laerm;54877;51.504;3.894;2023-02-28T16:19:30;57.93;36.42;75.48;;
66399;Laerm;54877;51.504;3.894;2023-02-28T16:21:56;60.24;35.66;79.92;;